sensor_id;sensor_type;location;lat;lon;timestamp;P1;durP1;ratioP1;P2;durP2;ratioP2
10082;SDS011;5080;48.528;8.078;2023-12-20T00:01:59;14.20;;;13.70;;
10082;SDS011;5080;48.528;8.078;2023-12-20T00:04:27;14.10;;;13.60;;
10082;SDS011;5080;48.528;8.078;2023-12-20T00:06:54;12.70;;;12.30;;
10082;SDS011;5080;48.528;8.078;2023-12-20T00:09:21;14.10;;;13.60;;
10082;SDS011;5080;48.528;8.078;2023-12-20T00:11:47;14.17;;;13.67;;
10082;SDS011;5080;48.528;8.078;2023-12-20T00:14:15;14.63;;;14.13;;
10082;SDS011;5080;48.528;8.078;2023-12-20T00:16:42;11.97;;;11.57;;
10082;SDS011;5080;48.528;8.078;2023-12-20T00:19:09;13.13;;;12.67;;
10082;SDS011;5080;48.528;8.078;2023-12-20T00:21:35;12.73;;;12.33;;
10082;SDS011;5080;48.528;8.078;2023-12-20T00:24:02;11.97;;;11.57;;
10082;SDS011;5080;48.528;8.078;2023-12-20T00:26:29;13.93;;;13.43;;
10082;SDS011;5080;48.528;8.078;2023-12-20T00:28:56;15.63;;;15.13;;
10082;SDS011;5080;48.528;8.078;2023-12-20T00:31:24;14.70;;;14.20;;
10082;SDS011;5080;48.528;8.078;2023-12-20T00:33:51;15.00;;;14.50;;
10082;SDS011;5080;48.528;8.078;2023-12-20T00:36:18;14.40;;;13.90;;
10082;SDS011;5080;48.528;8.078;2023-12-20T00:38:44;14.27;;;13.77;;
10082;SDS011;5080;48.528;8.078;2023-12-20T00:41:11;15.40;;;14.90;;
10082;SDS011;5080;48.528;8.078;2023-12-20T00:43:38;14.63;;;14.13;;
10082;SDS011;5080;48.528;8.078;2023-12-20T00:46:04;14.57;;;14.07;;
10082;SDS011;5080;48.528;8.078;2023-12-20T00:48:33;14.30;;;13.80;;
10082;SDS011;5080;48.528;8.078;2023-12-20T00:50:59;15.37;;;14.87;;
10082;SDS011;5080;48.528;8.078;2023-12-20T00:53:26;14.77;;;14.27;;
10082;SDS011;5080;48.528;8.078;2023-12-20T00:55:53;15.10;;;14.60;;
10082;SDS011;5080;48.528;8.078;2023-12-20T00:58:19;14.50;;;14.00;;
10082;SDS011;5080;48.528;8.078;2023-12-20T01:00:46;13.97;;;13.47;;
10082;SDS011;5080;48.528;8.078;2023-12-20T01:03:13;13.97;;;13.47;;
10082;SDS011;5080;48.528;8.078;2023-12-20T01:05:41;13.00;;;12.60;;
10082;SDS011;5080;48.528;8.078;2023-12-20T01:08:08;13.00;;;12.60;;
10082;SDS011;5080;48.528;8.078;2023-12-20T01:10:35;13.70;;;13.20;;
10082;SDS011;5080;48.528;8.078;2023-12-20T01:13:02;13.37;;;12.87;;
10082;SDS011;5080;48.528;8.078;2023-12-20T01:15:28;13.87;;;13.37;;
10082;SDS011;5080;48.528;8.078;2023-12-20T01:17:55;14.83;;;14.33;;
10082;SDS011;5080;48.528;8.078;2023-12-20T01:20:24;14.50;;;14.00;;
10082;SDS011;5080;48.528;8.078;2023-12-20T01:22:52;15.20;;;14.70;;
10082;SDS011;5080;48.528;8.078;2023-12-20T01:25:19;14.40;;;13.90;;
10082;SDS011;5080;48.528;8.078;2023-12-20T01:27:45;14.77;;;14.27;;
10082;SDS011;5080;48.528;8.078;2023-12-20T01:30:13;14.97;;;14.47;;
10082;SDS011;5080;48.528;8.078;2023-12-20T01:32:40;15.80;;;15.30;;
10082;SDS011;5080;48.528;8.078;2023-12-20T01:35:07;15.97;;;15.43;;
10082;SDS011;5080;48.528;8.078;2023-12-20T01:37:34;16.37;;;15.77;;
10082;SDS011;5080;48.528;8.078;2023-12-20T01:40:02;16.03;;;15.47;;
10082;SDS011;5080;48.528;8.078;2023-12-20T01:42:29;15.27;;;14.77;;
10082;SDS011;5080;48.528;8.078;2023-12-20T01:44:56;16.30;;;15.70;;
10082;SDS011;5080;48.528;8.078;2023-12-20T01:47:23;16.00;;;15.40;;
10082;SDS011;5080;48.528;8.078;2023-12-20T01:49:52;15.17;;;14.67;;
10082;SDS011;5080;48.528;8.078;2023-12-20T01:52:19;16.10;;;15.50;;
10082;SDS011;5080;48.528;8.078;2023-12-20T01:54:46;15.40;;;14.90;;
10082;SDS011;5080;48.528;8.078;2023-12-20T01:57:15;15.10;;;14.60;;
10082;SDS011;5080;48.528;8.078;2023-12-20T01:59:42;15.17;;;14.67;;
10082;SDS011;5080;48.528;8.078;2023-12-20T02:02:10;15.80;;;15.30;;
10082;SDS011;5080;48.528;8.078;2023-12-20T02:04:38;14.90;;;14.40;;
10082;SDS011;5080;48.528;8.078;2023-12-20T02:07:05;15.73;;;15.23;;
10082;SDS011;5080;48.528;8.078;2023-12-20T02:09:33;15.23;;;14.73;;
10082;SDS011;5080;48.528;8.078;2023-12-20T02:12:00;15.70;;;15.20;;
10082;SDS011;5080;48.528;8.078;2023-12-20T02:14:28;15.60;;;15.10;;
10082;SDS011;5080;48.528;8.078;2023-12-20T02:16:54;16.23;;;15.63;;
10082;SDS011;5080;48.528;8.078;2023-12-20T02:19:21;16.57;;;15.97;;
10082;SDS011;5080;48.528;8.078;2023-12-20T02:21:49;15.13;;;14.63;;
10082;SDS011;5080;48.528;8.078;2023-12-20T02:24:16;15.20;;;14.70;;
10082;SDS011;5080;48.528;8.078;2023-12-20T02:26:43;15.03;;;14.53;;
10082;SDS011;5080;48.528;8.078;2023-12-20T02:29:10;15.33;;;14.83;;
10082;SDS011;5080;48.528;8.078;2023-12-20T02:31:36;15.20;;;14.70;;
10082;SDS011;5080;48.528;8.078;2023-12-20T02:34:02;14.93;;;14.43;;
10082;SDS011;5080;48.528;8.078;2023-12-20T02:36:29;15.57;;;15.07;;
10082;SDS011;5080;48.528;8.078;2023-12-20T02:38:58;15.20;;;14.70;;
10082;SDS011;5080;48.528;8.078;2023-12-20T02:41:25;14.70;;;14.20;;
10082;SDS011;5080;48.528;8.078;2023-12-20T02:43:51;15.63;;;15.13;;
10082;SDS011;5080;48.528;8.078;2023-12-20T02:46:18;14.90;;;14.40;;
10082;SDS011;5080;48.528;8.078;2023-12-20T02:48:45;15.37;;;14.87;;
10082;SDS011;5080;48.528;8.078;2023-12-20T02:51:12;16.30;;;15.70;;
10082;SDS011;5080;48.528;8.078;2023-12-20T02:53:38;15.32;;;14.82;;
10082;SDS011;5080;48.528;8.078;2023-12-20T02:56:07;15.23;;;14.73;;
10082;SDS011;5080;48.528;8.078;2023-12-20T02:58:33;15.30;;;14.80;;
10082;SDS011;5080;48.528;8.078;2023-12-20T03:01:00;14.53;;;14.03;;
10082;SDS011;5080;48.528;8.078;2023-12-20T03:03:27;14.93;;;14.43;;
10082;SDS011;5080;48.528;8.078;2023-12-20T03:05:53;14.30;;;13.80;;
10082;SDS011;5080;48.528;8.078;2023-12-20T03:08:20;15.33;;;14.83;;
10082;SDS011;5080;48.528;8.078;2023-12-20T03:10:47;15.10;;;14.60;;
10082;SDS011;5080;48.528;8.078;2023-12-20T03:13:15;14.70;;;14.20;;
10082;SDS011;5080;48.528;8.078;2023-12-20T03:15:42;14.90;;;14.40;;
10082;SDS011;5080;48.528;8.078;2023-12-20T03:18:08;14.67;;;14.17;;
10082;SDS011;5080;48.528;8.078;2023-12-20T03:20:35;14.77;;;14.27;;
10082;SDS011;5080;48.528;8.078;2023-12-20T03:23:02;14.13;;;13.63;;
10082;SDS011;5080;48.528;8.078;2023-12-20T03:25:29;15.07;;;14.57;;
10082;SDS011;5080;48.528;8.078;2023-12-20T03:27:56;14.40;;;13.90;;
10082;SDS011;5080;48.528;8.078;2023-12-20T03:30:24;14.70;;;14.20;;
10082;SDS011;5080;48.528;8.078;2023-12-20T03:33:06;14.13;;;13.63;;
10082;SDS011;5080;48.528;8.078;2023-12-20T03:35:33;13.33;;;12.83;;
10082;SDS011;5080;48.528;8.078;2023-12-20T03:38:00;14.50;;;14.00;;
10082;SDS011;5080;48.528;8.078;2023-12-20T03:40:26;14.53;;;14.03;;
10082;SDS011;5080;48.528;8.078;2023-12-20T03:42:53;14.63;;;14.13;;
10082;SDS011;5080;48.528;8.078;2023-12-20T03:45:20;14.47;;;13.97;;
10082;SDS011;5080;48.528;8.078;2023-12-20T03:47:48;14.27;;;13.77;;
10082;SDS011;5080;48.528;8.078;2023-12-20T03:50:14;15.43;;;14.93;;
10082;SDS011;5080;48.528;8.078;2023-12-20T03:52:41;15.07;;;14.57;;
10082;SDS011;5080;48.528;8.078;2023-12-20T03:55:08;14.73;;;14.23;;
10082;SDS011;5080;48.528;8.078;2023-12-20T03:57:35;14.73;;;14.23;;
10082;SDS011;5080;48.528;8.078;2023-12-20T04:00:02;14.27;;;13.77;;
10082;SDS011;5080;48.528;8.078;2023-12-20T04:02:30;14.67;;;14.17;;
10082;SDS011;5080;48.528;8.078;2023-12-20T04:04:58;13.80;;;13.30;;
10082;SDS011;5080;48.528;8.078;2023-12-20T04:07:25;14.50;;;14.00;;
10082;SDS011;5080;48.528;8.078;2023-12-20T04:09:51;13.90;;;13.40;;
10082;SDS011;5080;48.528;8.078;2023-12-20T04:12:18;13.50;;;13.00;;
10082;SDS011;5080;48.528;8.078;2023-12-20T04:14:45;14.23;;;13.73;;
10082;SDS011;5080;48.528;8.078;2023-12-20T04:17:12;15.50;;;15.00;;
10082;SDS011;5080;48.528;8.078;2023-12-20T04:19:40;14.63;;;14.13;;
10082;SDS011;5080;48.528;8.078;2023-12-20T04:22:08;15.30;;;14.80;;
10082;SDS011;5080;48.528;8.078;2023-12-20T04:24:35;14.80;;;14.30;;
10082;SDS011;5080;48.528;8.078;2023-12-20T04:27:02;15.30;;;14.80;;
10082;SDS011;5080;48.528;8.078;2023-12-20T04:29:29;15.50;;;15.00;;
10082;SDS011;5080;48.528;8.078;2023-12-20T04:31:56;15.27;;;14.77;;
10082;SDS011;5080;48.528;8.078;2023-12-20T04:34:23;14.40;;;13.90;;
10082;SDS011;5080;48.528;8.078;2023-12-20T04:36:50;15.07;;;14.57;;
10082;SDS011;5080;48.528;8.078;2023-12-20T04:39:18;15.23;;;14.73;;
10082;SDS011;5080;48.528;8.078;2023-12-20T04:41:44;15.18;;;14.68;;
10082;SDS011;5080;48.528;8.078;2023-12-20T04:44:12;14.90;;;14.40;;
10082;SDS011;5080;48.528;8.078;2023-12-20T04:46:39;14.57;;;14.07;;
10082;SDS011;5080;48.528;8.078;2023-12-20T04:49:06;14.70;;;14.20;;
10082;SDS011;5080;48.528;8.078;2023-12-20T04:51:33;15.23;;;14.73;;
10082;SDS011;5080;48.528;8.078;2023-12-20T04:53:59;15.17;;;14.67;;
10082;SDS011;5080;48.528;8.078;2023-12-20T04:56:28;15.17;;;14.67;;
10082;SDS011;5080;48.528;8.078;2023-12-20T04:58:54;15.50;;;15.00;;
10082;SDS011;5080;48.528;8.078;2023-12-20T05:01:21;15.80;;;15.23;;
10082;SDS011;5080;48.528;8.078;2023-12-20T05:03:48;15.37;;;14.87;;
10082;SDS011;5080;48.528;8.078;2023-12-20T05:06:14;14.87;;;14.37;;
10082;SDS011;5080;48.528;8.078;2023-12-20T05:08:41;15.03;;;14.53;;
10082;SDS011;5080;48.528;8.078;2023-12-20T05:11:08;15.60;;;15.03;;
10082;SDS011;5080;48.528;8.078;2023-12-20T05:13:36;13.87;;;13.37;;
10082;SDS011;5080;48.528;8.078;2023-12-20T05:16:03;15.23;;;14.73;;
10082;SDS011;5080;48.528;8.078;2023-12-20T05:18:30;14.13;;;13.63;;
10082;SDS011;5080;48.528;8.078;2023-12-20T05:20:57;14.47;;;13.97;;
10082;SDS011;5080;48.528;8.078;2023-12-20T05:23:24;13.47;;;13.00;;
10082;SDS011;5080;48.528;8.078;2023-12-20T05:25:51;14.20;;;13.70;;
10082;SDS011;5080;48.528;8.078;2023-12-20T05:28:17;14.00;;;13.50;;
10082;SDS011;5080;48.528;8.078;2023-12-20T05:30:45;12.63;;;12.23;;
10082;SDS011;5080;48.528;8.078;2023-12-20T05:33:12;12.60;;;12.20;;
10082;SDS011;5080;48.528;8.078;2023-12-20T05:35:39;12.70;;;12.30;;
10082;SDS011;5080;48.528;8.078;2023-12-20T05:38:05;13.37;;;12.90;;
10082;SDS011;5080;48.528;8.078;2023-12-20T05:40:32;13.27;;;12.87;;
10082;SDS011;5080;48.528;8.078;2023-12-20T05:42:59;13.10;;;12.70;;
10082;SDS011;5080;48.528;8.078;2023-12-20T05:45:25;13.33;;;12.90;;
10082;SDS011;5080;48.528;8.078;2023-12-20T05:47:53;14.67;;;14.17;;
10082;SDS011;5080;48.528;8.078;2023-12-20T05:50:20;13.97;;;13.47;;
10082;SDS011;5080;48.528;8.078;2023-12-20T05:52:47;13.53;;;13.03;;
10082;SDS011;5080;48.528;8.078;2023-12-20T05:55:14;13.67;;;13.20;;
10082;SDS011;5080;48.528;8.078;2023-12-20T05:57:40;14.50;;;14.00;;
10082;SDS011;5080;48.528;8.078;2023-12-20T06:00:08;14.20;;;13.70;;
10082;SDS011;5080;48.528;8.078;2023-12-20T06:02:36;14.63;;;14.13;;
10082;SDS011;5080;48.528;8.078;2023-12-20T06:05:05;21.80;;;21.00;;
10082;SDS011;5080;48.528;8.078;2023-12-20T06:07:32;17.67;;;16.97;;
10082;SDS011;5080;48.528;8.078;2023-12-20T06:09:59;15.60;;;15.10;;
10082;SDS011;5080;48.528;8.078;2023-12-20T06:12:26;15.47;;;14.97;;
10082;SDS011;5080;48.528;8.078;2023-12-20T06:14:53;15.57;;;15.03;;
10082;SDS011;5080;48.528;8.078;2023-12-20T06:17:20;15.73;;;15.23;;
10082;SDS011;5080;48.528;8.078;2023-12-20T06:19:47;15.43;;;14.93;;
10082;SDS011;5080;48.528;8.078;2023-12-20T06:22:15;15.43;;;14.93;;
10082;SDS011;5080;48.528;8.078;2023-12-20T06:24:42;15.73;;;15.20;;
10082;SDS011;5080;48.528;8.078;2023-12-20T06:27:09;16.33;;;15.73;;
10082;SDS011;5080;48.528;8.078;2023-12-20T06:29:35;16.13;;;15.53;;
10082;SDS011;5080;48.528;8.078;2023-12-20T06:32:02;15.07;;;14.57;;
10082;SDS011;5080;48.528;8.078;2023-12-20T06:34:29;15.70;;;15.20;;
10082;SDS011;5080;48.528;8.078;2023-12-20T06:36:56;17.33;;;16.63;;
10082;SDS011;5080;48.528;8.078;2023-12-20T06:39:24;16.83;;;16.23;;
10082;SDS011;5080;48.528;8.078;2023-12-20T06:41:51;15.40;;;14.90;;
10082;SDS011;5080;48.528;8.078;2023-12-20T06:44:18;15.80;;;15.27;;
10082;SDS011;5080;48.528;8.078;2023-12-20T06:46:44;15.17;;;14.67;;
10082;SDS011;5080;48.528;8.078;2023-12-20T06:49:11;16.52;;;15.93;;
10082;SDS011;5080;48.528;8.078;2023-12-20T06:51:38;15.53;;;15.00;;
10082;SDS011;5080;48.528;8.078;2023-12-20T06:54:05;15.53;;;15.03;;
10082;SDS011;5080;48.528;8.078;2023-12-20T06:56:33;15.67;;;15.17;;
10082;SDS011;5080;48.528;8.078;2023-12-20T06:59:00;15.93;;;15.37;;
10082;SDS011;5080;48.528;8.078;2023-12-20T07:01:26;17.23;;;16.63;;
10082;SDS011;5080;48.528;8.078;2023-12-20T07:03:53;15.10;;;14.60;;
10082;SDS011;5080;48.528;8.078;2023-12-20T07:06:20;15.90;;;15.30;;
10082;SDS011;5080;48.528;8.078;2023-12-20T07:08:47;14.93;;;14.43;;
10082;SDS011;5080;48.528;8.078;2023-12-20T07:11:13;16.67;;;16.07;;
10082;SDS011;5080;48.528;8.078;2023-12-20T07:13:41;15.90;;;15.30;;
10082;SDS011;5080;48.528;8.078;2023-12-20T07:16:08;16.67;;;16.00;;
10082;SDS011;5080;48.528;8.078;2023-12-20T07:18:35;16.13;;;15.53;;
10082;SDS011;5080;48.528;8.078;2023-12-20T07:21:02;16.30;;;15.77;;
10082;SDS011;5080;48.528;8.078;2023-12-20T07:23:29;16.77;;;16.17;;
10082;SDS011;5080;48.528;8.078;2023-12-20T07:25:55;16.17;;;15.60;;
10082;SDS011;5080;48.528;8.078;2023-12-20T07:28:22;16.87;;;16.27;;
10082;SDS011;5080;48.528;8.078;2023-12-20T07:30:51;16.70;;;16.10;;
10082;SDS011;5080;48.528;8.078;2023-12-20T07:33:18;16.10;;;15.57;;
10082;SDS011;5080;48.528;8.078;2023-12-20T07:35:44;17.25;;;16.65;;
10082;SDS011;5080;48.528;8.078;2023-12-20T07:38:11;17.00;;;16.40;;
10082;SDS011;5080;48.528;8.078;2023-12-20T07:40:38;16.13;;;15.53;;
10082;SDS011;5080;48.528;8.078;2023-12-20T07:43:05;16.50;;;15.90;;
10082;SDS011;5080;48.528;8.078;2023-12-20T07:45:31;16.97;;;16.37;;
10082;SDS011;5080;48.528;8.078;2023-12-20T07:47:59;18.60;;;17.93;;
10082;SDS011;5080;48.528;8.078;2023-12-20T07:50:26;17.33;;;16.73;;
10082;SDS011;5080;48.528;8.078;2023-12-20T07:52:53;19.33;;;18.63;;
10082;SDS011;5080;48.528;8.078;2023-12-20T07:55:20;17.97;;;17.37;;
10082;SDS011;5080;48.528;8.078;2023-12-20T07:57:47;19.00;;;18.30;;
10082;SDS011;5080;48.528;8.078;2023-12-20T08:00:14;17.13;;;16.53;;
10082;SDS011;5080;48.528;8.078;2023-12-20T08:02:42;16.37;;;15.77;;
10082;SDS011;5080;48.528;8.078;2023-12-20T08:05:10;17.50;;;16.80;;
10082;SDS011;5080;48.528;8.078;2023-12-20T08:07:37;16.50;;;15.90;;
10082;SDS011;5080;48.528;8.078;2023-12-20T08:10:04;17.13;;;16.53;;
10082;SDS011;5080;48.528;8.078;2023-12-20T08:12:31;16.10;;;15.50;;
10082;SDS011;5080;48.528;8.078;2023-12-20T08:14:58;15.80;;;15.27;;
10082;SDS011;5080;48.528;8.078;2023-12-20T08:17:25;14.97;;;14.47;;
10082;SDS011;5080;48.528;8.078;2023-12-20T08:19:52;16.27;;;15.67;;
10082;SDS011;5080;48.528;8.078;2023-12-20T08:22:20;15.13;;;14.63;;
10082;SDS011;5080;48.528;8.078;2023-12-20T08:24:46;15.73;;;15.17;;
10082;SDS011;5080;48.528;8.078;2023-12-20T08:27:13;16.17;;;15.57;;
10082;SDS011;5080;48.528;8.078;2023-12-20T08:29:40;15.23;;;14.63;;
10082;SDS011;5080;48.528;8.078;2023-12-20T08:32:06;15.20;;;14.70;;
10082;SDS011;5080;48.528;8.078;2023-12-20T08:34:33;15.63;;;15.10;;
10082;SDS011;5080;48.528;8.078;2023-12-20T08:37:00;15.37;;;14.87;;
10082;SDS011;5080;48.528;8.078;2023-12-20T08:39:28;16.43;;;15.83;;
10082;SDS011;5080;48.528;8.078;2023-12-20T08:41:55;16.17;;;15.57;;
10082;SDS011;5080;48.528;8.078;2023-12-20T08:44:22;15.77;;;15.17;;
10082;SDS011;5080;48.528;8.078;2023-12-20T08:46:49;16.13;;;15.53;;
10082;SDS011;5080;48.528;8.078;2023-12-20T08:49:15;15.87;;;15.27;;
10082;SDS011;5080;48.528;8.078;2023-12-20T08:51:42;15.90;;;15.30;;
10082;SDS011;5080;48.528;8.078;2023-12-20T08:54:09;15.97;;;15.37;;
10082;SDS011;5080;48.528;8.078;2023-12-20T08:56:39;15.70;;;15.10;;
10082;SDS011;5080;48.528;8.078;2023-12-20T08:59:06;16.10;;;15.50;;
10082;SDS011;5080;48.528;8.078;2023-12-20T09:01:32;15.93;;;15.32;;
10082;SDS011;5080;48.528;8.078;2023-12-20T09:03:59;15.60;;;15.10;;
10082;SDS011;5080;48.528;8.078;2023-12-20T09:06:26;16.07;;;15.47;;
10082;SDS011;5080;48.528;8.078;2023-12-20T09:08:52;16.10;;;15.50;;
10082;SDS011;5080;48.528;8.078;2023-12-20T09:11:19;16.87;;;16.23;;
10082;SDS011;5080;48.528;8.078;2023-12-20T09:13:47;18.23;;;17.53;;
10082;SDS011;5080;48.528;8.078;2023-12-20T09:16:14;16.40;;;15.80;;
10082;SDS011;5080;48.528;8.078;2023-12-20T09:18:41;15.57;;;15.00;;
10082;SDS011;5080;48.528;8.078;2023-12-20T09:21:08;15.60;;;15.00;;
10082;SDS011;5080;48.528;8.078;2023-12-20T09:23:34;14.90;;;14.40;;
10082;SDS011;5080;48.528;8.078;2023-12-20T09:26:01;14.80;;;14.30;;
10082;SDS011;5080;48.528;8.078;2023-12-20T09:28:29;14.60;;;14.10;;
10082;SDS011;5080;48.528;8.078;2023-12-20T09:30:59;15.60;;;15.00;;
10082;SDS011;5080;48.528;8.078;2023-12-20T09:33:25;13.57;;;13.07;;
10082;SDS011;5080;48.528;8.078;2023-12-20T09:35:52;14.03;;;13.53;;
10082;SDS011;5080;48.528;8.078;2023-12-20T09:38:19;14.47;;;13.97;;
10082;SDS011;5080;48.528;8.078;2023-12-20T09:40:45;13.67;;;13.17;;
10082;SDS011;5080;48.528;8.078;2023-12-20T09:43:14;13.47;;;12.97;;
10082;SDS011;5080;48.528;8.078;2023-12-20T09:45:41;13.13;;;12.67;;
10082;SDS011;5080;48.528;8.078;2023-12-20T09:48:13;14.53;;;14.03;;
10082;SDS011;5080;48.528;8.078;2023-12-20T09:50:40;13.90;;;13.40;;
10082;SDS011;5080;48.528;8.078;2023-12-20T09:53:08;13.10;;;12.60;;
10082;SDS011;5080;48.528;8.078;2023-12-20T09:55:38;12.73;;;12.27;;
10082;SDS011;5080;48.528;8.078;2023-12-20T09:58:07;13.20;;;12.70;;
10082;SDS011;5080;48.528;8.078;2023-12-20T10:00:34;12.33;;;11.93;;
10082;SDS011;5080;48.528;8.078;2023-12-20T10:03:01;12.77;;;12.27;;
10082;SDS011;5080;48.528;8.078;2023-12-20T10:05:29;11.90;;;11.50;;
10082;SDS011;5080;48.528;8.078;2023-12-20T10:07:57;11.67;;;11.27;;
10082;SDS011;5080;48.528;8.078;2023-12-20T10:10:24;12.30;;;11.80;;
10082;SDS011;5080;48.528;8.078;2023-12-20T10:13:00;11.73;;;11.27;;
10082;SDS011;5080;48.528;8.078;2023-12-20T10:15:29;12.57;;;11.97;;
10082;SDS011;5080;48.528;8.078;2023-12-20T10:17:56;11.00;;;10.60;;
10082;SDS011;5080;48.528;8.078;2023-12-20T10:20:23;11.50;;;11.10;;
10082;SDS011;5080;48.528;8.078;2023-12-20T10:22:51;11.57;;;11.17;;
10082;SDS011;5080;48.528;8.078;2023-12-20T10:25:19;12.77;;;12.27;;
10082;SDS011;5080;48.528;8.078;2023-12-20T10:27:46;12.67;;;12.20;;
10082;SDS011;5080;48.528;8.078;2023-12-20T10:30:13;12.60;;;12.20;;
10082;SDS011;5080;48.528;8.078;2023-12-20T10:32:40;12.47;;;12.07;;
10082;SDS011;5080;48.528;8.078;2023-12-20T10:35:07;12.80;;;12.30;;
10082;SDS011;5080;48.528;8.078;2023-12-20T10:37:35;12.57;;;12.13;;
10082;SDS011;5080;48.528;8.078;2023-12-20T10:40:03;12.30;;;11.80;;
10082;SDS011;5080;48.528;8.078;2023-12-20T10:42:32;11.70;;;11.30;;
10082;SDS011;5080;48.528;8.078;2023-12-20T10:45:01;12.57;;;12.17;;
10082;SDS011;5080;48.528;8.078;2023-12-20T10:47:27;12.33;;;11.83;;
10082;SDS011;5080;48.528;8.078;2023-12-20T10:49:57;11.90;;;11.50;;
10082;SDS011;5080;48.528;8.078;2023-12-20T10:52:25;12.43;;;11.93;;
10082;SDS011;5080;48.528;8.078;2023-12-20T10:54:53;11.37;;;10.97;;
10082;SDS011;5080;48.528;8.078;2023-12-20T10:57:22;12.33;;;11.83;;
10082;SDS011;5080;48.528;8.078;2023-12-20T10:59:49;11.60;;;11.20;;
10082;SDS011;5080;48.528;8.078;2023-12-20T11:02:19;11.57;;;11.17;;
10082;SDS011;5080;48.528;8.078;2023-12-20T11:04:50;11.93;;;11.53;;
10082;SDS011;5080;48.528;8.078;2023-12-20T11:07:21;11.57;;;11.17;;
10082;SDS011;5080;48.528;8.078;2023-12-20T11:09:57;11.73;;;11.23;;
10082;SDS011;5080;48.528;8.078;2023-12-20T11:12:32;11.80;;;11.40;;
10082;SDS011;5080;48.528;8.078;2023-12-20T11:15:03;12.43;;;11.93;;
10082;SDS011;5080;48.528;8.078;2023-12-20T11:17:31;11.73;;;11.33;;
10082;SDS011;5080;48.528;8.078;2023-12-20T11:20:06;11.63;;;11.23;;
10082;SDS011;5080;48.528;8.078;2023-12-20T11:22:35;12.33;;;11.83;;
10082;SDS011;5080;48.528;8.078;2023-12-20T11:25:04;12.37;;;11.87;;
10082;SDS011;5080;48.528;8.078;2023-12-20T11:27:34;13.10;;;12.60;;
10082;SDS011;5080;48.528;8.078;2023-12-20T11:30:02;11.60;;;11.20;;
10082;SDS011;5080;48.528;8.078;2023-12-20T11:32:33;12.07;;;11.67;;
10082;SDS011;5080;48.528;8.078;2023-12-20T11:35:01;12.60;;;12.10;;
10082;SDS011;5080;48.528;8.078;2023-12-20T11:37:43;13.23;;;12.73;;
10082;SDS011;5080;48.528;8.078;2023-12-20T11:40:13;12.30;;;11.80;;
10082;SDS011;5080;48.528;8.078;2023-12-20T11:42:43;12.37;;;11.97;;
10082;SDS011;5080;48.528;8.078;2023-12-20T11:45:11;13.07;;;12.57;;
10082;SDS011;5080;48.528;8.078;2023-12-20T11:47:40;12.97;;;12.47;;
10082;SDS011;5080;48.528;8.078;2023-12-20T11:50:08;12.30;;;11.90;;
10082;SDS011;5080;48.528;8.078;2023-12-20T11:52:35;12.20;;;11.70;;
10082;SDS011;5080;48.528;8.078;2023-12-20T11:55:02;12.40;;;11.90;;
10082;SDS011;5080;48.528;8.078;2023-12-20T11:57:29;12.03;;;11.60;;
10082;SDS011;5080;48.528;8.078;2023-12-20T11:59:57;12.50;;;12.03;;
10082;SDS011;5080;48.528;8.078;2023-12-20T12:02:24;13.13;;;12.63;;
10082;SDS011;5080;48.528;8.078;2023-12-20T12:04:51;12.80;;;12.30;;
10082;SDS011;5080;48.528;8.078;2023-12-20T12:07:18;12.83;;;12.33;;
10082;SDS011;5080;48.528;8.078;2023-12-20T12:09:45;13.40;;;12.90;;
10082;SDS011;5080;48.528;8.078;2023-12-20T12:12:12;12.40;;;12.00;;
10082;SDS011;5080;48.528;8.078;2023-12-20T12:14:39;12.20;;;11.70;;
10082;SDS011;5080;48.528;8.078;2023-12-20T12:17:11;12.60;;;12.10;;
10082;SDS011;5080;48.528;8.078;2023-12-20T12:19:38;12.57;;;12.17;;
10082;SDS011;5080;48.528;8.078;2023-12-20T12:22:05;14.30;;;13.70;;
10082;SDS011;5080;48.528;8.078;2023-12-20T12:24:33;12.40;;;11.90;;
10082;SDS011;5080;48.528;8.078;2023-12-20T12:27:00;11.67;;;11.27;;
10082;SDS011;5080;48.528;8.078;2023-12-20T12:29:27;12.47;;;12.07;;
10082;SDS011;5080;48.528;8.078;2023-12-20T12:31:54;12.90;;;12.40;;
10082;SDS011;5080;48.528;8.078;2023-12-20T12:34:22;12.73;;;12.23;;
10082;SDS011;5080;48.528;8.078;2023-12-20T12:36:49;13.33;;;12.83;;
10082;SDS011;5080;48.528;8.078;2023-12-20T12:39:17;13.30;;;12.80;;
10082;SDS011;5080;48.528;8.078;2023-12-20T12:41:44;11.97;;;11.57;;
10082;SDS011;5080;48.528;8.078;2023-12-20T12:44:11;12.47;;;12.07;;
10082;SDS011;5080;48.528;8.078;2023-12-20T12:46:37;12.20;;;11.80;;
10082;SDS011;5080;48.528;8.078;2023-12-20T12:49:04;13.43;;;12.87;;
10082;SDS011;5080;48.528;8.078;2023-12-20T12:51:32;12.23;;;11.73;;
10082;SDS011;5080;48.528;8.078;2023-12-20T12:53:59;12.40;;;11.90;;
10082;SDS011;5080;48.528;8.078;2023-12-20T12:56:26;12.67;;;12.17;;
10082;SDS011;5080;48.528;8.078;2023-12-20T12:58:52;12.60;;;12.10;;
10082;SDS011;5080;48.528;8.078;2023-12-20T13:01:20;14.33;;;13.80;;
10082;SDS011;5080;48.528;8.078;2023-12-20T13:03:47;13.37;;;12.87;;
10082;SDS011;5080;48.528;8.078;2023-12-20T13:06:13;12.67;;;12.17;;
10082;SDS011;5080;48.528;8.078;2023-12-20T13:08:41;12.70;;;12.23;;
10082;SDS011;5080;48.528;8.078;2023-12-20T13:11:09;12.90;;;12.43;;
10082;SDS011;5080;48.528;8.078;2023-12-20T13:13:36;12.43;;;11.93;;
10082;SDS011;5080;48.528;8.078;2023-12-20T13:16:03;12.80;;;12.30;;
10082;SDS011;5080;48.528;8.078;2023-12-20T13:18:30;12.80;;;12.30;;
10082;SDS011;5080;48.528;8.078;2023-12-20T13:20:57;13.30;;;12.80;;
10082;SDS011;5080;48.528;8.078;2023-12-20T13:23:24;12.77;;;12.27;;
10082;SDS011;5080;48.528;8.078;2023-12-20T13:25:52;12.07;;;11.67;;
10082;SDS011;5080;48.528;8.078;2023-12-20T13:28:18;12.23;;;11.73;;
10082;SDS011;5080;48.528;8.078;2023-12-20T13:30:45;12.20;;;11.70;;
10082;SDS011;5080;48.528;8.078;2023-12-20T13:33:12;11.70;;;11.30;;
10082;SDS011;5080;48.528;8.078;2023-12-20T13:35:39;12.63;;;12.13;;
10082;SDS011;5080;48.528;8.078;2023-12-20T13:38:05;12.17;;;11.77;;
10082;SDS011;5080;48.528;8.078;2023-12-20T13:40:32;13.17;;;12.67;;
10082;SDS011;5080;48.528;8.078;2023-12-20T13:43:00;13.50;;;13.00;;
10082;SDS011;5080;48.528;8.078;2023-12-20T13:45:28;12.37;;;11.87;;
10082;SDS011;5080;48.528;8.078;2023-12-20T13:47:56;11.87;;;11.40;;
10082;SDS011;5080;48.528;8.078;2023-12-20T13:50:24;11.63;;;11.23;;
10082;SDS011;5080;48.528;8.078;2023-12-20T13:52:51;12.20;;;11.77;;
10082;SDS011;5080;48.528;8.078;2023-12-20T13:55:18;11.60;;;11.20;;
10082;SDS011;5080;48.528;8.078;2023-12-20T13:57:47;12.50;;;12.00;;
10082;SDS011;5080;48.528;8.078;2023-12-20T14:00:15;11.97;;;11.57;;
10082;SDS011;5080;48.528;8.078;2023-12-20T14:02:42;11.43;;;11.00;;
10082;SDS011;5080;48.528;8.078;2023-12-20T14:05:11;12.00;;;11.60;;
10082;SDS011;5080;48.528;8.078;2023-12-20T14:07:39;12.27;;;11.77;;
10082;SDS011;5080;48.528;8.078;2023-12-20T14:10:06;11.67;;;11.27;;
10082;SDS011;5080;48.528;8.078;2023-12-20T14:12:34;12.02;;;11.52;;
10082;SDS011;5080;48.528;8.078;2023-12-20T14:15:03;12.55;;;12.05;;
10082;SDS011;5080;48.528;8.078;2023-12-20T14:17:35;12.20;;;11.70;;
10082;SDS011;5080;48.528;8.078;2023-12-20T14:20:02;11.93;;;11.40;;
10082;SDS011;5080;48.528;8.078;2023-12-20T14:22:30;12.23;;;11.73;;
10082;SDS011;5080;48.528;8.078;2023-12-20T14:24:56;12.20;;;11.77;;
10082;SDS011;5080;48.528;8.078;2023-12-20T14:27:23;12.30;;;11.80;;
10082;SDS011;5080;48.528;8.078;2023-12-20T14:29:52;11.90;;;11.50;;
10082;SDS011;5080;48.528;8.078;2023-12-20T14:32:19;11.30;;;10.90;;
10082;SDS011;5080;48.528;8.078;2023-12-20T14:34:47;11.40;;;11.00;;